createdAt,value
2022-11-27T01:48:25.024Z,38.60
2022-11-27T01:50:29.296Z,38.17
2022-11-27T01:52:42.762Z,36.53
2022-11-27T01:57:47.607Z,33.45
2022-11-27T02:00:50.854Z,39.03
2022-11-27T02:02:13.198Z,34.10
2022-11-27T02:06:34.854Z,35.10
2022-11-27T02:10:14.114Z,35.58
2022-11-27T02:12:10.740Z,36.65
2022-11-27T02:17:28.984Z,35.22
2022-11-27T02:19:20.108Z,36.97
2022-11-27T02:22:48.542Z,34.80
2022-11-27T02:24:21.985Z,38.95
2022-11-27T02:25:40.629Z,38.60
2022-11-27T02:27:17.003Z,39.55
2022-11-27T02:28:50.837Z,40.33
2022-11-27T02:30:13.649Z,38.65
2022-11-27T02:31:56.661Z,38.97
2022-11-27T02:33:11.041Z,42.22
2022-11-27T02:34:53.606Z,41.50
2022-11-27T02:36:49.867Z,42.58
2022-11-27T02:40:56.827Z,36.15
2022-11-27T02:42:29.893Z,37.50
2022-11-27T03:25:47.020Z,27.98
2022-11-27T03:27:06.085Z,29.75
2022-11-27T03:28:32.995Z,31.25
2022-11-27T03:32:05.672Z,28.40
2022-11-27T03:35:30.361Z,32.42
2022-11-27T03:40:02.122Z,28.85
2022-11-27T03:45:15.148Z,28.23
2022-11-27T03:47:16.956Z,26.35
2022-11-27T03:51:27.986Z,27.63
2022-11-27T04:07:05.803Z,22.85
2022-11-27T04:11:59.751Z,27.92
2022-11-27T04:16:42.752Z,25.80
2022-11-27T04:22:02.474Z,24.55
2022-11-27T04:23:48.428Z,29.10
2022-11-27T04:25:36.944Z,28.25
2022-11-27T04:29:22.554Z,22.83
2022-11-27T04:31:08.486Z,26.42
2022-11-27T04:32:35.083Z,27.05
2022-11-27T04:39:19.348Z,27.75
2022-11-27T04:51:40.524Z,24.13
2022-11-27T04:53:56.714Z,24.73
2022-11-27T04:58:44.871Z,25.05
2022-11-27T05:00:18.866Z,26.80
2022-11-27T05:02:38.987Z,26.73
2022-11-27T05:06:36.141Z,27.30
2022-11-27T05:08:37.997Z,25.23
2022-11-27T05:24:37.130Z,20.23
2022-11-27T05:26:04.557Z,20.90
2022-11-27T05:27:36.168Z,22.48
2022-11-27T05:28:53.007Z,21.98
2022-11-27T05:30:15.371Z,23.48
2022-11-27T05:31:38.643Z,19.58
2022-11-27T06:11:59.405Z,22.67
2022-11-27T06:15:07.926Z,21.55
2022-11-27T06:34:08.194Z,22.83
2022-11-27T06:36:46.874Z,21.67
2022-11-27T06:37:53.199Z,22.83
2022-11-27T06:39:47.556Z,26.15
2022-11-27T06:41:16.710Z,23.73
2022-11-27T06:42:28.861Z,27.58
2022-11-27T06:44:19.070Z,24.08
2022-11-27T06:46:07.245Z,25.55
2022-11-27T06:52:48.435Z,21.63
2022-11-27T06:56:14.570Z,23.30
2022-11-27T06:58:01.507Z,22.15
2022-11-27T06:59:18.595Z,24.80
2022-11-27T07:00:25.461Z,25.50
2022-11-27T07:01:32.220Z,23.40
2022-11-27T07:02:49.860Z,26.08
2022-11-27T07:04:34.371Z,24.90
2022-11-27T07:05:51.296Z,20.42
2022-11-27T07:07:09.624Z,23.73
2022-11-27T07:08:27.225Z,25.02
2022-11-27T07:09:50.756Z,27.50
2022-11-27T07:11:05.895Z,23.83
2022-11-27T07:12:10.363Z,26.05
2022-11-27T07:13:16.485Z,24.88
2022-11-27T07:14:27.233Z,25.95
2022-11-27T07:15:34.178Z,23.20
2022-11-27T07:16:42.564Z,23.75
2022-11-27T08:27:26.978Z,28.05
2022-11-27T08:29:50.125Z,25.08
2022-11-27T08:34:27.519Z,26.35
2022-11-27T08:36:02.246Z,28.75
2022-11-27T08:41:42.183Z,28.52
2022-11-27T08:45:06.315Z,26.35
2022-11-27T08:46:12.628Z,24.90
2022-11-27T08:55:40.490Z,23.80
2022-11-27T09:02:16.403Z,27.30
2022-11-27T09:05:56.464Z,24.73
2022-11-27T09:07:58.697Z,23.40
2022-11-27T09:16:05.179Z,23.42
2022-11-27T09:23:57.014Z,21.67
2022-11-27T09:25:48.557Z,20.83
2022-11-27T09:27:35.079Z,19.60
2022-11-27T09:28:45.212Z,20.50
2022-11-27T09:29:54.992Z,22.27
2022-11-27T09:31:06.507Z,20.90
2022-11-27T09:32:12.340Z,21.88
2022-11-27T09:33:22.313Z,20.35
2022-11-27T09:34:37.279Z,19.92
2022-11-27T09:35:49.323Z,22.08
2022-11-27T09:37:21.662Z,18.50
2022-11-27T09:38:29.717Z,23.45
2022-11-27T09:39:35.515Z,19.83
2022-11-27T09:40:55.528Z,22.13
2022-11-27T09:42:44.858Z,19.38
2022-11-27T09:44:09.263Z,21.38
2022-11-27T09:45:17.821Z,22.95
2022-11-27T09:46:29.834Z,23.65
2022-11-27T09:47:42.012Z,23.92
2022-11-27T09:48:50.521Z,20.88
2022-11-27T09:50:26.664Z,20.70
2022-11-27T09:51:44.084Z,18.27
2022-11-27T09:53:27.765Z,18.20
2022-11-27T09:54:50.835Z,19.80
2022-11-27T09:56:06.962Z,20.17
2022-11-27T09:57:33.404Z,20.05
2022-11-27T09:58:49.925Z,20.40
2022-11-27T10:00:11.391Z,20.20
2022-11-27T10:01:30.436Z,23.23
2022-11-27T10:02:47.394Z,21.92
2022-11-27T10:04:04.912Z,18.50
2022-11-27T10:05:18.381Z,18.70
2022-11-27T10:06:30.491Z,19.27
2022-11-27T10:08:06.922Z,19.90
2022-11-27T10:09:38.782Z,16.77
2022-11-27T10:11:03.416Z,19.30
2022-11-27T10:12:51.837Z,19.33
2022-11-27T10:19:20.910Z,17.70
2022-11-27T10:20:55.914Z,20.05
2022-11-27T10:40:05.619Z,19.10
2022-11-27T10:41:49.695Z,21.83
2022-11-27T10:43:49.643Z,21.92
2022-11-27T10:45:29.531Z,23.70
2022-11-27T10:53:33.988Z,20.30
2022-11-27T10:56:58.047Z,20.35
2022-11-27T10:58:03.613Z,22.35
2022-11-27T10:59:11.886Z,21.02
2022-11-27T11:00:28.714Z,23.95
2022-11-27T11:01:47.500Z,23.35
2022-11-27T11:03:06.901Z,21.45
2022-11-27T11:04:31.684Z,25.95
2022-11-27T11:06:18.533Z,19.52
2022-11-27T11:06:59.890Z,20.10
2022-11-27T11:08:18.633Z,20.02
2022-11-27T11:09:31.810Z,21.95
2022-11-27T11:11:13.801Z,18.38
2022-11-27T11:12:21.749Z,19.27
2022-11-27T11:13:28.283Z,20.88
2022-11-27T11:14:32.202Z,21.80
2022-11-27T11:15:36.653Z,23.70
2022-11-27T11:16:50.200Z,23.58
2022-11-27T11:17:53.602Z,25.00
2022-11-27T11:18:57.367Z,32.60
2022-11-27T11:20:01.851Z,30.52
2022-11-27T11:21:07.940Z,30.40
2022-11-27T11:22:19.033Z,31.80
2022-11-27T11:23:32.215Z,29.63
2022-11-27T11:24:40.825Z,27.75
2022-11-27T11:25:50.693Z,24.98
2022-11-27T11:27:09.933Z,23.30
2022-11-27T11:28:21.291Z,23.13
2022-11-27T11:29:33.061Z,23.20
2022-11-27T11:30:44.039Z,24.58
2022-11-27T11:31:56.840Z,26.65
2022-11-27T11:33:05.040Z,23.92
2022-11-27T11:36:14.084Z,25.83
2022-11-27T11:37:38.281Z,26.35
2022-11-27T11:38:48.725Z,27.70
2022-11-27T11:40:03.515Z,22.45
2022-11-27T11:42:40.402Z,22.63
2022-11-27T11:44:05.854Z,23.35
2022-11-27T11:45:17.744Z,21.80
2022-11-27T11:46:58.194Z,21.13
2022-11-27T11:48:25.950Z,20.40
2022-11-27T11:49:47.351Z,22.45
2022-11-27T11:51:57.174Z,18.65
2022-11-27T11:54:12.192Z,18.35
2022-11-27T11:55:27.822Z,18.02
2022-11-27T11:56:37.338Z,19.25
2022-11-27T11:57:56.095Z,18.25
2022-11-27T11:59:08.371Z,19.27
2022-11-27T12:00:18.114Z,19.17
2022-11-27T12:01:38.752Z,19.55
2022-11-27T12:02:58.724Z,16.20
2022-11-27T12:04:35.756Z,19.08
2022-11-27T12:06:00.389Z,17.25
2022-11-27T12:07:36.689Z,17.67
2022-11-27T12:09:02.637Z,21.02
2022-11-27T12:10:10.756Z,18.05
2022-11-27T12:11:20.299Z,20.90
2022-11-27T12:13:01.656Z,20.48
2022-11-27T12:14:22.538Z,22.88
2022-11-27T12:16:07.750Z,23.27
2022-11-27T12:17:11.780Z,22.10
2022-11-27T12:18:25.646Z,20.88
2022-11-27T12:20:07.022Z,22.45
2022-11-27T12:21:41.643Z,21.30
2022-11-27T12:23:26.649Z,22.63
2022-11-27T12:24:34.613Z,20.95
2022-11-27T12:25:57.007Z,24.65
2022-11-27T12:27:17.664Z,24.27
2022-11-27T12:28:39.515Z,23.98
2022-11-27T12:29:42.611Z,23.73
2022-11-27T12:31:22.056Z,24.75
2022-11-27T12:32:49.894Z,29.20
2022-11-27T12:34:06.676Z,29.08
2022-11-27T12:35:40.627Z,23.85
2022-11-27T12:37:00.991Z,26.15
2022-11-27T12:38:41.230Z,25.73
2022-11-27T12:40:29.906Z,27.60
2022-11-27T12:42:01.680Z,27.27
2022-11-27T12:43:06.964Z,29.05
2022-11-27T12:44:33.956Z,26.60
2022-11-27T12:46:12.133Z,26.75
2022-11-27T12:47:29.704Z,31.73
2022-11-27T12:48:41.063Z,25.10
2022-11-27T12:49:57.879Z,26.55
2022-11-27T12:51:07.100Z,30.45
2022-11-27T12:52:19.107Z,29.38
2022-11-27T12:54:17.569Z,27.92
2022-11-27T12:55:26.814Z,28.27
2022-11-27T12:56:41.353Z,29.80
2022-11-27T12:57:46.624Z,30.88
2022-11-27T12:59:16.227Z,28.48
2022-11-27T13:00:24.823Z,33.03
2022-11-27T13:01:34.210Z,30.33
2022-11-27T13:02:46.621Z,30.05
2022-11-27T13:04:06.861Z,29.52
2022-11-27T13:05:26.785Z,28.80
2022-11-27T13:06:33.242Z,31.63
2022-11-27T13:07:51.942Z,29.58
2022-11-27T13:09:00.137Z,28.83
2022-11-27T13:10:21.598Z,31.52
2022-11-27T13:11:39.638Z,27.13
2022-11-27T13:13:08.541Z,31.92
2022-11-27T13:14:20.370Z,28.88
2022-11-27T13:15:35.992Z,29.08
2022-11-27T13:16:47.037Z,33.42
2022-11-27T13:17:56.750Z,30.52
2022-11-27T13:19:33.948Z,31.40
2022-11-27T13:20:40.444Z,33.47
2022-11-27T13:21:47.155Z,31.38
2022-11-27T13:22:51.268Z,39.00
2022-11-27T13:23:55.320Z,33.95
2022-11-27T13:25:01.752Z,34.67
2022-11-27T13:26:12.784Z,37.35
2022-11-27T13:27:36.456Z,37.97
2022-11-27T13:29:06.073Z,37.90
2022-11-27T13:30:10.028Z,36.38
2022-11-27T13:31:22.727Z,34.00
2022-11-27T13:32:50.810Z,35.80
2022-11-27T13:34:07.941Z,37.55
2022-11-27T13:36:09.263Z,29.85
2022-11-27T13:37:31.194Z,56.80
2022-11-27T13:38:43.546Z,34.17
2022-11-27T13:40:05.490Z,32.60
2022-11-27T13:41:21.861Z,34.95
2022-11-27T13:42:30.901Z,32.88
2022-11-27T13:43:52.701Z,33.42
2022-11-27T13:45:09.381Z,32.47
2022-11-27T13:46:25.527Z,32.63
2022-11-27T13:47:52.777Z,35.38
2022-11-27T13:49:09.837Z,34.00
2022-11-27T13:54:42.051Z,32.03
2022-11-27T13:56:45.582Z,30.88
2022-11-27T13:58:14.288Z,31.92
2022-11-27T14:00:04.820Z,33.08
2022-11-27T14:01:29.729Z,34.60
2022-11-27T14:02:55.170Z,35.85
2022-11-27T14:04:15.847Z,28.67
2022-11-27T14:07:17.873Z,33.50
2022-11-27T14:08:36.692Z,35.05
2022-11-27T14:10:09.068Z,31.63
2022-11-27T14:11:44.919Z,32.90
2022-11-27T14:13:14.991Z,32.45
2022-11-27T14:27:28.807Z,33.65
2022-11-27T14:31:03.748Z,31.75
2022-11-27T14:32:25.169Z,32.72
2022-11-27T14:34:13.331Z,48.55
2022-11-27T14:37:34.979Z,47.15
2022-11-27T14:39:05.668Z,32.45
2022-11-27T14:40:28.299Z,38.80
2022-11-27T14:41:41.780Z,41.63
2022-11-27T14:43:10.637Z,34.80
2022-11-27T14:45:18.594Z,40.03
2022-11-27T14:46:26.890Z,44.70
2022-11-27T14:48:02.725Z,39.42
2022-11-27T14:49:24.465Z,61.10
2022-11-27T14:53:43.835Z,43.90
2022-11-27T14:55:20.207Z,38.92
2022-11-27T14:56:23.277Z,29.50
2022-11-27T14:57:30.707Z,33.88
2022-11-27T14:58:49.847Z,33.67
2022-11-27T15:03:30.881Z,33.20
2022-11-27T15:05:33.222Z,29.10
2022-11-27T15:11:53.845Z,29.90
2022-11-27T15:15:19.056Z,29.95
2022-11-27T15:17:39.372Z,43.88
2022-11-27T15:19:17.430Z,29.85
2022-11-27T15:20:48.263Z,32.08
2022-11-27T15:22:01.413Z,28.10
2022-11-27T15:23:34.319Z,31.33
2022-11-27T15:25:32.969Z,31.35
2022-11-27T15:26:47.144Z,33.42
2022-11-27T15:28:10.894Z,31.48
2022-11-27T15:29:43.189Z,32.10
2022-11-27T15:30:53.392Z,29.48
2022-11-27T15:31:59.628Z,33.15
2022-11-27T15:33:44.906Z,34.30
2022-11-27T15:37:40.929Z,28.02
2022-11-27T15:39:37.022Z,31.35
2022-11-27T15:41:02.103Z,33.90
2022-11-27T15:42:37.455Z,31.33
2022-11-27T15:43:55.729Z,26.98
2022-11-27T15:45:15.069Z,28.45
2022-11-27T15:46:38.176Z,28.33
2022-11-27T15:47:58.868Z,30.90
2022-11-27T15:49:13.554Z,30.48
2022-11-27T15:51:17.176Z,24.15
2022-11-27T15:52:26.807Z,25.88
2022-11-27T15:55:28.282Z,28.90
2022-11-27T15:56:51.430Z,29.45
2022-11-27T15:58:19.582Z,28.10
2022-11-27T15:59:45.030Z,25.08
2022-11-27T16:00:51.872Z,31.83
2022-11-27T16:02:03.119Z,37.53
2022-11-27T16:04:45.326Z,28.45
2022-11-27T16:06:01.207Z,25.45
2022-11-27T16:07:16.634Z,29.35
2022-11-27T16:08:41.059Z,24.23
2022-11-27T16:10:09.942Z,30.77
2022-11-27T16:11:30.539Z,26.63
2022-11-27T16:12:42.045Z,26.17
2022-11-27T16:15:12.143Z,24.38
2022-11-27T16:16:24.059Z,27.98
2022-11-27T16:17:43.195Z,27.17
2022-11-27T16:18:49.137Z,30.10
2022-11-27T16:19:59.792Z,23.27
2022-11-27T16:21:13.710Z,25.00
2022-11-27T16:22:31.588Z,24.48
2022-11-27T16:23:48.832Z,24.70
2022-11-27T16:25:00.016Z,24.17
2022-11-27T16:26:27.566Z,24.48
2022-11-27T16:27:49.157Z,23.05
2022-11-27T16:30:46.057Z,25.48
2022-11-27T16:32:14.682Z,26.05
2022-11-27T16:33:40.113Z,23.88
2022-11-27T16:34:54.543Z,22.50
2022-11-27T16:36:09.350Z,22.70
2022-11-27T16:37:18.946Z,23.42
2022-11-27T16:38:26.313Z,23.70
2022-11-27T16:39:34.620Z,24.08
2022-11-27T16:40:41.322Z,25.80
2022-11-27T16:41:46.752Z,33.83
2022-11-27T16:42:53.993Z,29.50
2022-11-27T16:44:15.099Z,29.13
2022-11-27T16:45:31.408Z,27.23
2022-11-27T16:46:45.829Z,39.17
2022-11-27T16:48:15.240Z,25.25
2022-11-27T16:49:43.196Z,24.75
2022-11-27T16:50:56.098Z,29.65
2022-11-27T16:52:05.324Z,27.95
2022-11-27T16:53:11.750Z,35.33
2022-11-27T16:54:22.624Z,25.73
2022-11-27T16:55:45.184Z,32.58
2022-11-27T16:56:50.927Z,26.05
2022-11-27T16:57:54.837Z,30.25
2022-11-27T16:59:03.045Z,29.77
2022-11-27T17:00:14.186Z,30.13
2022-11-27T17:01:30.693Z,28.63
2022-11-27T17:02:47.001Z,27.80
2022-11-27T17:04:02.057Z,28.17
2022-11-27T17:05:10.838Z,26.75
2022-11-27T17:06:29.679Z,26.42
2022-11-27T17:08:00.644Z,27.77
2022-11-27T17:09:24.710Z,26.50
2022-11-27T17:10:32.295Z,29.10
2022-11-27T17:11:36.989Z,26.58
2022-11-27T17:12:42.958Z,32.58
2022-11-27T17:13:55.586Z,27.83
2022-11-27T17:15:01.955Z,28.27
2022-11-27T17:16:11.577Z,31.58
2022-11-27T17:17:15.344Z,32.83
2022-11-27T17:18:24.908Z,27.85
2022-11-27T17:19:36.308Z,31.13
2022-11-27T17:20:42.158Z,33.58
2022-11-27T17:21:55.447Z,33.15
2022-11-27T17:23:05.525Z,31.95
2022-11-27T17:24:15.909Z,26.85
2022-11-27T17:25:25.681Z,25.95
2022-11-27T17:26:33.882Z,27.88
2022-11-27T17:27:43.143Z,32.03
2022-11-27T17:28:56.775Z,30.80
2022-11-27T17:30:01.170Z,28.90
2022-11-27T17:32:52.143Z,26.10
2022-11-27T17:34:01.946Z,27.38
2022-11-27T17:35:13.362Z,28.48
2022-11-27T17:36:24.901Z,29.77
2022-11-27T17:38:30.825Z,23.25
2022-11-27T17:39:46.528Z,27.58
2022-11-27T17:42:57.380Z,27.48
2022-11-27T17:44:09.834Z,27.35
2022-11-27T17:45:23.059Z,32.80
2022-11-27T17:46:32.581Z,29.40
2022-11-27T17:47:42.153Z,32.42
2022-11-27T17:49:29.727Z,28.88
2022-11-27T17:50:36.747Z,31.83
2022-11-27T17:52:11.165Z,29.58
2022-11-27T17:53:31.522Z,26.90
2022-11-27T17:55:01.305Z,28.38
2022-11-27T17:56:55.715Z,25.67
2022-11-27T17:58:38.150Z,28.80
2022-11-27T18:01:30.406Z,32.40
2022-11-27T18:02:40.390Z,30.48
2022-11-27T18:03:49.744Z,27.48
2022-11-27T18:05:12.692Z,28.85
2022-11-27T18:06:39.069Z,28.30
2022-11-27T18:08:15.729Z,30.00
2022-11-27T18:09:24.185Z,29.73
2022-11-27T18:10:42.713Z,30.15
2022-11-27T18:13:12.481Z,31.73
2022-11-27T18:14:24.158Z,25.55
2022-11-27T18:15:38.407Z,29.08
2022-11-27T18:17:21.638Z,29.90
2022-11-27T18:18:24.732Z,31.83
2022-11-27T18:19:33.325Z,26.25
2022-11-27T18:20:54.782Z,28.77
2022-11-27T18:22:00.814Z,26.17
2022-11-27T18:23:08.284Z,28.00
2022-11-27T18:24:23.558Z,30.60
2022-11-27T18:25:47.695Z,29.58
2022-11-27T18:28:23.270Z,28.73
2022-11-27T18:29:34.230Z,27.30
2022-11-27T18:30:38.540Z,29.90
2022-11-27T18:33:21.595Z,30.87
2022-11-27T18:34:27.843Z,33.13
2022-11-27T18:35:41.765Z,30.90
2022-11-27T18:36:54.176Z,29.33
2022-11-27T18:38:06.319Z,29.88
2022-11-27T18:39:32.791Z,27.65
2022-11-27T18:41:40.365Z,29.67
2022-11-27T18:46:41.742Z,28.13
2022-11-27T18:48:29.462Z,30.80
2022-11-27T18:51:21.770Z,26.98
2022-11-27T18:53:30.805Z,30.52
2022-11-27T18:59:31.936Z,29.05
2022-11-27T19:02:46.096Z,23.13
2022-11-27T19:09:32.067Z,28.60
2022-11-27T19:10:42.218Z,37.92
2022-11-27T19:11:47.636Z,30.38
2022-11-27T19:12:49.978Z,33.20
2022-11-27T19:14:00.718Z,32.53
2022-11-27T19:15:05.120Z,29.67
2022-11-27T19:16:16.421Z,29.75
2022-11-27T19:17:26.727Z,28.63
2022-11-27T19:18:38.904Z,29.98
2022-11-27T19:19:54.551Z,31.45
2022-11-27T19:21:11.564Z,28.33
2022-11-27T19:22:14.401Z,27.80
2022-11-27T19:23:20.540Z,28.15
2022-11-27T19:24:25.000Z,29.17
2022-11-27T19:25:39.239Z,28.30
2022-11-27T19:26:43.673Z,31.27
2022-11-27T19:27:48.965Z,33.70
2022-11-27T19:29:00.818Z,30.73
2022-11-27T19:30:03.961Z,30.52
2022-11-27T19:31:14.661Z,31.08
2022-11-27T19:32:19.956Z,30.87
2022-11-27T19:33:27.499Z,31.00
2022-11-27T19:34:33.916Z,25.85
2022-11-27T19:35:37.137Z,31.42
2022-11-27T19:36:42.303Z,30.20
2022-11-27T19:37:48.179Z,34.10
2022-11-27T19:39:01.297Z,29.85
2022-11-27T19:40:06.852Z,29.58
2022-11-27T19:41:16.087Z,30.35
2022-11-27T19:42:18.852Z,27.75
2022-11-27T19:43:21.747Z,31.60
2022-11-27T19:44:26.729Z,32.28
2022-11-27T19:45:37.535Z,33.03
2022-11-27T19:46:44.925Z,30.02
2022-11-27T19:47:52.783Z,28.95
2022-11-27T19:49:00.266Z,28.20
2022-11-27T19:50:05.082Z,29.67
2022-11-27T19:51:10.556Z,34.03
2022-11-27T19:52:20.302Z,32.83
2022-11-27T19:53:26.247Z,32.95
2022-11-27T19:54:30.453Z,30.20
2022-11-27T19:55:37.041Z,30.73
2022-11-27T19:56:44.640Z,29.48
2022-11-27T19:57:47.867Z,29.58
2022-11-27T19:58:56.565Z,32.05
2022-11-27T19:59:58.918Z,33.45
2022-11-27T20:01:13.412Z,32.15
2022-11-27T20:02:16.552Z,31.05
2022-11-27T20:03:20.443Z,34.03
2022-11-27T20:04:22.827Z,31.10
2022-11-27T20:05:26.558Z,32.30
2022-11-27T20:06:34.733Z,33.63
2022-11-27T20:07:41.697Z,34.13
2022-11-27T20:08:51.762Z,30.60
2022-11-27T20:09:58.009Z,33.85
2022-11-27T20:11:01.312Z,30.75
2022-11-27T20:12:06.193Z,33.00
2022-11-27T20:13:14.134Z,33.33
2022-11-27T20:14:24.349Z,35.15
2022-11-27T20:15:41.956Z,33.63
2022-11-27T20:16:55.604Z,32.60
2022-11-27T20:18:02.311Z,36.80
2022-11-27T20:19:06.623Z,33.97
2022-11-27T20:20:11.393Z,36.20
2022-11-27T20:21:23.103Z,30.20
2022-11-27T20:23:38.938Z,37.10
2022-11-27T20:25:11.080Z,34.53
2022-11-27T20:26:11.481Z,32.90
2022-11-27T20:27:16.279Z,30.50
2022-11-27T20:28:18.690Z,32.53
2022-11-27T20:29:23.487Z,34.35
2022-11-27T20:30:25.675Z,32.90
2022-11-27T20:31:39.534Z,35.47
2022-11-27T20:32:46.487Z,37.13
2022-11-27T20:33:48.704Z,40.08
2022-11-27T20:34:58.840Z,35.78
2022-11-27T20:36:03.827Z,34.13
2022-11-27T20:37:08.444Z,32.80
2022-11-27T20:38:11.905Z,33.67
2022-11-27T20:39:20.535Z,33.17
2022-11-27T20:41:12.622Z,32.72
2022-11-27T20:42:15.096Z,36.55
2022-11-27T20:43:18.084Z,33.13
2022-11-27T20:44:23.355Z,29.05
2022-11-27T20:45:28.422Z,34.70
2022-11-27T20:46:35.239Z,36.13
2022-11-27T20:47:38.800Z,36.53
2022-11-27T20:48:51.913Z,30.80
2022-11-27T20:49:58.063Z,33.53
2022-11-27T20:51:17.139Z,40.38
2022-11-27T20:52:19.585Z,35.45
2022-11-27T20:53:29.888Z,33.17
2022-11-27T20:54:33.193Z,34.80
2022-11-27T20:55:36.001Z,36.05
2022-11-27T20:56:38.480Z,35.22
2022-11-27T20:57:50.826Z,36.38
2022-11-27T20:58:56.508Z,42.55
2022-11-27T20:59:59.323Z,37.95
2022-11-27T21:01:16.558Z,35.60
2022-11-27T21:02:19.529Z,31.98
2022-11-27T21:03:21.824Z,35.80
2022-11-27T21:04:28.283Z,37.15
2022-11-27T21:05:36.928Z,39.60
2022-11-27T21:06:44.191Z,35.70
2022-11-27T21:07:47.433Z,31.85
2022-11-27T21:08:55.862Z,35.65
2022-11-27T21:10:01.930Z,40.08
2022-11-27T21:11:27.896Z,34.92
2022-11-27T21:12:32.063Z,38.70
2022-11-27T21:13:36.808Z,37.83
2022-11-27T21:14:43.305Z,39.58
2022-11-27T21:15:58.277Z,39.50
2022-11-27T21:17:05.244Z,39.00
2022-11-27T21:18:14.122Z,38.45
2022-11-27T21:19:30.237Z,40.88
2022-11-27T21:20:34.326Z,39.45
2022-11-27T21:21:39.716Z,38.03
2022-11-27T21:22:44.462Z,37.45
2022-11-27T21:23:49.220Z,41.72
2022-11-27T21:24:54.611Z,41.95
2022-11-27T21:25:59.401Z,34.05
2022-11-27T21:27:02.862Z,40.90
2022-11-27T21:28:11.202Z,45.25
2022-11-27T21:29:13.918Z,43.58
2022-11-27T21:30:19.266Z,43.55
2022-11-27T21:31:30.163Z,43.17
2022-11-27T21:32:41.655Z,40.78
2022-11-27T21:33:59.900Z,41.85
2022-11-27T21:35:04.851Z,43.05
2022-11-27T21:36:08.380Z,44.75
2022-11-27T21:37:13.129Z,43.00
2022-11-27T21:38:19.781Z,43.72
2022-11-27T21:39:22.385Z,41.60
2022-11-27T21:40:36.346Z,42.83
2022-11-27T21:41:44.791Z,42.75
2022-11-27T21:42:49.907Z,44.85
2022-11-27T21:43:58.714Z,45.55
2022-11-27T21:45:03.690Z,43.38
2022-11-27T21:46:22.566Z,47.58
2022-11-27T21:47:25.260Z,42.28
2022-11-27T21:48:39.192Z,44.03
2022-11-27T21:49:41.915Z,47.08
2022-11-27T21:50:49.302Z,45.50
2022-11-27T21:51:57.445Z,49.00
2022-11-27T21:53:09.864Z,42.60
2022-11-27T21:54:19.079Z,43.88
2022-11-27T21:55:25.011Z,47.50
2022-11-27T21:56:30.294Z,45.35
2022-11-27T21:57:37.714Z,46.92
2022-11-27T21:58:40.677Z,47.20
2022-11-27T21:59:43.422Z,51.75
2022-11-27T22:00:46.080Z,47.10
2022-11-27T22:01:50.645Z,46.58
2022-11-27T22:02:59.005Z,46.72
2022-11-27T22:04:02.878Z,47.58
2022-11-27T22:05:09.064Z,43.50
2022-11-27T22:06:17.655Z,39.50
2022-11-27T22:07:25.842Z,45.20
2022-11-27T22:08:30.666Z,41.67
2022-11-27T22:09:36.264Z,48.35
2022-11-27T22:10:47.533Z,46.65
2022-11-27T22:11:55.571Z,44.90
2022-11-27T22:13:03.726Z,42.80
2022-11-27T22:14:09.640Z,43.05
2022-11-27T22:15:18.434Z,51.05
2022-11-27T22:16:25.464Z,42.00
2022-11-27T22:17:30.752Z,44.88
2022-11-27T22:18:34.998Z,47.50
2022-11-27T22:19:42.733Z,40.80
2022-11-27T22:20:47.534Z,43.08
2022-11-27T22:21:52.265Z,38.45
2022-11-27T22:22:54.998Z,41.08
2022-11-27T22:24:02.013Z,44.28
2022-11-27T22:25:07.380Z,39.47
2022-11-27T22:26:14.317Z,43.50
2022-11-27T22:27:19.533Z,45.33
2022-11-27T22:28:26.388Z,39.13
2022-11-27T22:29:29.288Z,46.08
2022-11-27T22:30:34.384Z,43.28
2022-11-27T22:31:38.515Z,39.42
2022-11-27T22:32:41.382Z,47.10
2022-11-27T22:33:45.874Z,37.92
2022-11-27T22:34:51.571Z,42.00
2022-11-27T22:35:53.940Z,45.47
2022-11-27T22:36:59.100Z,45.03
2022-11-27T22:38:08.276Z,44.90
2022-11-27T22:39:16.345Z,41.00
2022-11-27T22:40:24.550Z,43.58
2022-11-27T22:41:30.470Z,38.47
2022-11-27T22:42:37.523Z,43.35
2022-11-27T22:43:42.124Z,43.72
2022-11-27T22:44:47.567Z,40.42
2022-11-27T22:45:51.287Z,40.85
2022-11-27T22:46:58.322Z,46.53
2022-11-27T22:48:06.037Z,44.85
2022-11-27T22:49:12.655Z,44.85
2022-11-27T22:50:19.091Z,44.45
2022-11-27T22:51:34.272Z,40.47
2022-11-27T22:52:46.213Z,43.65
2022-11-27T22:53:49.340Z,39.47
2022-11-27T22:54:57.871Z,41.53
2022-11-27T22:56:09.725Z,40.97
2022-11-27T22:57:15.046Z,40.50
2022-11-27T22:58:18.854Z,46.25
2022-11-27T22:59:34.539Z,42.83
2022-11-27T23:01:47.654Z,36.95
2022-11-27T23:02:58.808Z,40.20
2022-11-27T23:04:04.489Z,41.20
2022-11-27T23:05:08.745Z,40.65
2022-11-27T23:06:16.332Z,42.45
2022-11-27T23:07:25.347Z,40.35
2022-11-27T23:08:29.190Z,38.90
2022-11-27T23:09:33.573Z,38.92
2022-11-27T23:10:46.661Z,40.90
2022-11-27T23:12:00.870Z,40.83
2022-11-27T23:13:09.713Z,44.97
2022-11-27T23:15:32.195Z,41.75
2022-11-27T23:16:35.112Z,38.97
2022-11-27T23:17:39.854Z,41.35
2022-11-27T23:18:51.162Z,41.05
2022-11-27T23:19:56.698Z,41.67
2022-11-27T23:21:05.845Z,40.50
2022-11-27T23:22:14.139Z,43.92
2022-11-27T23:23:16.977Z,40.05
2022-11-27T23:24:25.352Z,43.50
2022-11-27T23:25:40.812Z,42.40
2022-11-27T23:26:54.601Z,38.00
2022-11-27T23:28:06.492Z,44.13
2022-11-27T23:29:14.844Z,41.42
2022-11-27T23:30:30.726Z,40.42
2022-11-27T23:31:41.906Z,43.70
2022-11-27T23:32:49.292Z,37.85
2022-11-27T23:34:02.828Z,39.92
2022-11-27T23:35:22.769Z,42.20
2022-11-27T23:36:33.462Z,44.10
2022-11-27T23:37:43.428Z,42.75
2022-11-27T23:39:01.084Z,38.67
2022-11-27T23:40:11.470Z,39.83
2022-11-27T23:41:26.806Z,39.05
2022-11-27T23:42:29.513Z,35.05
2022-11-27T23:43:39.166Z,40.58
2022-11-27T23:44:44.600Z,37.10
2022-11-27T23:45:47.616Z,38.42
2022-11-27T23:46:55.581Z,38.53
2022-11-27T23:48:03.505Z,42.75
2022-11-27T23:49:27.891Z,38.38
2022-11-27T23:50:32.461Z,36.80
2022-11-27T23:51:38.018Z,37.78
2022-11-27T23:52:45.222Z,37.45
2022-11-27T23:53:52.639Z,40.28
2022-11-27T23:54:58.259Z,39.40
2022-11-27T23:56:11.837Z,34.88
2022-11-27T23:57:18.221Z,38.10
2022-11-27T23:58:21.976Z,39.92
2022-11-27T23:59:26.983Z,39.80
